Time;durP1;ratioP1;P1;durP2;ratioP2;P2;SDS_P1;SDS_P2;PMS_P1;PMS_P2;Temp;Humidity;BMP_temperature;BMP_pressure;BME280_temperature;BME280_humidity;BME280_pressure;Samples;Min_cycle;Max_cycle;Signal;HPM_P1;HPM_P2
2022/06/24 00:00:45;;;;;;;8.83;8.07;;;23.90;99.90;;;;;;5029826;28;20518;-37
2022/06/24 00:03:18;;;;;;;8.67;7.97;;;23.80;99.90;;;;;;5029738;28;20427;-37
2022/06/24 00:05:46;;;;;;;8.43;7.70;;;23.70;99.90;;;;;;5029698;28;20468;-36
2022/06/24 00:08:11;;;;;;;8.40;7.67;;;23.70;99.90;;;;;;5027791;28;20421;-38
2022/06/24 00:10:37;;;;;;;7.77;7.17;;;23.70;99.90;;;;;;5029914;28;20456;-38
2022/06/24 00:13:05;;;;;;;8.50;7.70;;;23.70;99.90;;;;;;5031986;28;20206;-37
2022/06/24 00:15:33;;;;;;;9.43;7.73;;;23.80;99.90;;;;;;5033950;28;20224;-38
2022/06/24 00:18:15;;;;;;;8.70;8.03;;;23.80;99.90;;;;;;5032956;28;20432;-38
2022/06/24 00:20:43;;;;;;;7.63;7.03;;;23.60;99.90;;;;;;5033531;28;20439;-38
2022/06/24 00:23:09;;;;;;;9.77;7.73;;;23.60;99.90;;;;;;5033510;28;20512;-38
2022/06/24 00:25:38;;;;;;;7.70;6.90;;;23.60;99.90;;;;;;5033374;28;20995;-38
2022/06/24 00:28:09;;;;;;;7.20;6.60;;;23.60;99.90;;;;;;5033117;28;20194;-41
2022/06/24 00:30:52;;;;;;;8.87;7.23;;;23.60;99.90;;;;;;5033462;28;20413;-37
2022/06/24 00:33:23;;;;;;;8.27;7.57;;;23.50;99.90;;;;;;5033751;28;20420;-38
2022/06/24 00:35:51;;;;;;;7.17;6.47;;;23.40;99.90;;;;;;5033271;28;20474;-38
2022/06/24 00:38:34;;;;;;;8.23;7.53;;;23.50;99.90;;;;;;5032937;28;20503;-38
2022/06/24 00:41:02;;;;;;;8.27;7.67;;;23.50;99.90;;;;;;5033204;28;20429;-38
2022/06/24 00:43:53;;;;;;;7.30;6.70;;;23.50;99.90;;;;;;5033086;28;20456;-37
2022/06/24 00:46:26;;;;;;;7.93;7.23;;;23.50;99.90;;;;;;5033007;28;20496;-37
2022/06/24 00:48:57;;;;;;;7.80;7.20;;;23.50;99.90;;;;;;5036232;28;20427;-38
2022/06/24 00:51:31;;;;;;;8.30;7.53;;;23.60;99.90;;;;;;5041806;28;20453;-38
2022/06/24 00:53:56;;;;;;;10.40;6.90;;;23.60;99.90;;;;;;5032904;28;20426;-39
2022/06/24 00:56:25;;;;;;;8.13;7.33;;;23.60;99.90;;;;;;5033045;28;20426;-38
2022/06/24 00:59:04;;;;;;;7.63;6.83;;;23.70;99.90;;;;;;5032315;28;20191;-38
2022/06/24 01:01:32;;;;;;;11.10;7.93;;;23.70;99.90;;;;;;5032834;28;20431;-38
2022/06/24 01:03:59;;;;;;;7.07;6.47;;;23.80;99.90;;;;;;5032956;28;20817;-38
2022/06/24 01:06:26;;;;;;;8.40;7.53;;;23.90;99.90;;;;;;5032565;28;20468;-38
2022/06/24 01:08:52;;;;;;;7.70;6.80;;;23.80;99.90;;;;;;5032317;28;20425;-38
2022/06/24 01:11:34;;;;;;;10.17;6.90;;;23.80;99.90;;;;;;5032810;28;20449;-38
2022/06/24 01:14:00;;;;;;;9.17;6.30;;;23.80;99.90;;;;;;5032649;28;20413;-37
2022/06/24 01:16:26;;;;;;;8.13;6.20;;;23.80;99.90;;;;;;5032625;28;20433;-38
2022/06/24 01:18:52;;;;;;;8.60;6.37;;;23.70;99.90;;;;;;5031673;28;20445;-38
2022/06/24 01:21:38;;;;;;;9.43;6.20;;;23.70;99.90;;;;;;5032814;28;20421;-37
2022/06/24 01:24:12;;;;;;;6.53;5.80;;;23.70;99.90;;;;;;5031873;28;20785;-39
2022/06/24 01:26:44;;;;;;;6.80;6.00;;;23.60;99.90;;;;;;5031947;28;20464;-38
2022/06/24 01:29:10;;;;;;;8.30;6.17;;;23.50;99.90;;;;;;5032005;28;20947;-37
2022/06/24 01:31:38;;;;;;;7.90;6.33;;;23.50;99.90;;;;;;5032716;28;20536;-38
2022/06/24 01:34:05;;;;;;;7.37;6.67;;;23.40;99.90;;;;;;5031075;28;20467;-38
2022/06/24 01:36:31;;;;;;;7.60;6.80;;;23.40;99.90;;;;;;5032040;28;20510;-38
2022/06/24 01:38:57;;;;;;;9.23;5.93;;;23.40;99.90;;;;;;5031778;28;21507;-37
2022/06/24 01:41:22;;;;;;;10.47;6.80;;;23.30;99.90;;;;;;5032347;28;20333;-38
2022/06/24 01:43:48;;;;;;;9.60;7.20;;;23.30;99.90;;;;;;5032002;28;20190;-38
2022/06/24 01:46:15;;;;;;;7.00;6.30;;;23.20;99.90;;;;;;5032126;28;20229;-38
2022/06/24 01:48:41;;;;;;;10.00;6.70;;;23.20;99.90;;;;;;5033796;28;20190;-38
2022/06/24 01:51:09;;;;;;;10.60;6.07;;;23.10;99.90;;;;;;5042486;28;20429;-40
2022/06/24 01:53:35;;;;;;;6.40;5.77;;;23.00;99.90;;;;;;5032036;28;20448;-38
2022/06/24 01:56:01;;;;;;;9.43;7.53;;;22.90;99.90;;;;;;5031877;28;20436;-38
2022/06/24 01:58:27;;;;;;;10.17;7.30;;;23.00;99.90;;;;;;5031086;28;20433;-39
2022/06/24 02:00:53;;;;;;;10.23;6.90;;;22.90;99.90;;;;;;5031631;28;20206;-40
2022/06/24 02:03:18;;;;;;;9.13;6.00;;;22.90;99.90;;;;;;5031799;28;20273;-38
2022/06/24 02:05:46;;;;;;;10.53;7.20;;;22.80;99.90;;;;;;5031743;28;20214;-38
2022/06/24 02:08:13;;;;;;;6.87;6.23;;;22.80;99.90;;;;;;5031049;28;20186;-38
2022/06/24 02:13:26;;;;;;;7.33;6.47;;;22.70;99.90;;;;;;5031511;28;20519;-39
2022/06/24 02:15:56;;;;;;;9.93;6.60;;;22.50;99.90;;;;;;5031614;28;20520;-38
2022/06/24 02:18:23;;;;;;;11.47;6.90;;;22.50;99.90;;;;;;5030858;28;20796;-38
2022/06/24 02:20:49;;;;;;;9.07;6.60;;;22.50;99.90;;;;;;5031353;28;20433;-38
2022/06/24 02:23:16;;;;;;;9.57;7.07;;;22.50;99.90;;;;;;5031214;28;20809;-38
2022/06/24 02:25:42;;;;;;;13.40;6.27;;;22.50;99.90;;;;;;5031292;28;20523;-38
2022/06/24 02:28:07;;;;;;;8.90;6.90;;;22.50;99.90;;;;;;5030669;28;20894;-38
2022/06/24 02:30:33;;;;;;;8.30;5.90;;;22.50;99.90;;;;;;5031299;28;20194;-38
2022/06/24 02:32:59;;;;;;;7.43;6.00;;;22.30;99.90;;;;;;5031305;28;20183;-39
2022/06/24 02:35:25;;;;;;;8.33;6.23;;;22.20;99.90;;;;;;5028974;28;20197;-38
2022/06/24 02:37:51;;;;;;;6.93;5.87;;;22.20;99.90;;;;;;5029116;28;20730;-38
2022/06/24 02:43:01;;;;;;;6.93;6.00;;;22.30;99.90;;;;;;5031156;28;20228;-41
2022/06/24 02:45:26;;;;;;;8.80;7.27;;;22.30;99.90;;;;;;5030650;28;20515;-38
2022/06/24 02:47:52;;;;;;;8.00;6.10;;;22.30;99.90;;;;;;5030441;28;20178;-39
2022/06/24 02:50:18;;;;;;;10.30;7.30;;;22.40;99.90;;;;;;5043598;28;20178;-38
2022/06/24 02:52:43;;;;;;;8.27;6.97;;;22.40;99.90;;;;;;5030862;28;20229;-40
2022/06/24 02:55:09;;;;;;;8.67;7.20;;;22.40;99.90;;;;;;5029425;28;20190;-38
2022/06/24 02:57:35;;;;;;;6.83;6.23;;;22.40;99.90;;;;;;5030421;28;20241;-39
2022/06/24 03:00:01;;;;;;;8.13;6.50;;;22.40;99.90;;;;;;5030733;28;20360;-39
2022/06/24 03:02:26;;;;;;;11.33;6.87;;;22.30;99.90;;;;;;5030670;28;20554;-38
2022/06/24 03:04:52;;;;;;;8.53;7.50;;;22.30;99.90;;;;;;5030522;28;20460;-38
2022/06/24 03:07:18;;;;;;;11.70;7.67;;;22.30;99.90;;;;;;5028631;28;20318;-40
2022/06/24 03:09:43;;;;;;;10.40;7.20;;;22.30;99.90;;;;;;5030571;28;20190;-37
2022/06/24 03:12:09;;;;;;;11.70;8.30;;;22.20;99.90;;;;;;5030597;28;20281;-39
2022/06/24 03:14:35;;;;;;;9.93;7.70;;;22.20;99.90;;;;;;5030420;28;20186;-40
2022/06/24 03:17:00;;;;;;;11.87;8.57;;;22.20;99.90;;;;;;5028637;28;20210;-38
2022/06/24 03:19:26;;;;;;;16.33;9.77;;;22.20;99.90;;;;;;5030167;28;20221;-38
2022/06/24 03:21:52;;;;;;;10.87;9.50;;;22.10;99.90;;;;;;5030439;28;20182;-38
2022/06/24 03:24:18;;;;;;;10.90;9.90;;;22.10;99.90;;;;;;5028971;28;21119;-38
2022/06/24 03:26:43;;;;;;;13.00;10.23;;;22.10;99.90;;;;;;5030018;28;20222;-38
2022/06/24 03:29:09;;;;;;;12.03;10.83;;;22.10;99.90;;;;;;5030098;28;20237;-38
2022/06/24 03:31:35;;;;;;;11.77;9.50;;;22.10;99.90;;;;;;5030313;28;20186;-38
2022/06/24 03:34:00;;;;;;;10.70;9.70;;;22.10;99.90;;;;;;5030173;28;20228;-39
2022/06/24 03:36:26;;;;;;;10.80;9.80;;;22.10;99.90;;;;;;5030098;28;20213;-41
2022/06/24 03:38:52;;;;;;;11.90;10.50;;;22.00;99.90;;;;;;5029450;28;20195;-37
2022/06/24 03:41:18;;;;;;;11.73;10.77;;;22.00;99.90;;;;;;5028880;28;20195;-38
2022/06/24 03:43:43;;;;;;;13.13;11.43;;;22.00;99.90;;;;;;5029879;28;20432;-39
2022/06/24 03:46:09;;;;;;;11.53;10.33;;;22.00;99.90;;;;;;5028934;28;20210;-38
2022/06/24 03:48:35;;;;;;;12.10;10.90;;;21.90;99.90;;;;;;5030813;28;20187;-38
2022/06/24 03:51:00;;;;;;;13.63;11.70;;;21.90;99.90;;;;;;5041230;28;20215;-39
2022/06/24 03:53:26;;;;;;;12.10;10.80;;;21.90;99.90;;;;;;5029993;28;20265;-40
2022/06/24 03:55:52;;;;;;;11.70;10.67;;;21.90;99.90;;;;;;5029972;28;20218;-38
2022/06/24 03:58:19;;;;;;;12.43;11.33;;;21.90;99.90;;;;;;5029255;28;20201;-38
2022/06/24 04:00:45;;;;;;;12.67;11.57;;;21.80;99.90;;;;;;5028440;28;20473;-38
2022/06/24 04:03:11;;;;;;;12.77;11.70;;;21.70;99.90;;;;;;5029695;28;20506;-40
2022/06/24 04:05:37;;;;;;;12.73;11.43;;;21.60;99.90;;;;;;5029610;28;20525;-38
2022/06/24 04:08:04;;;;;;;12.50;11.30;;;21.60;99.90;;;;;;5029297;28;20432;-38
2022/06/24 04:10:30;;;;;;;12.37;11.27;;;21.60;99.90;;;;;;5029800;28;20429;-41
2022/06/24 04:12:56;;;;;;;12.53;11.23;;;21.50;99.90;;;;;;5029684;28;20429;-38
2022/06/24 04:15:21;;;;;;;11.27;10.13;;;21.50;99.90;;;;;;5029689;28;20433;-39
2022/06/24 04:17:48;;;;;;;11.73;10.67;;;21.50;99.90;;;;;;5029040;28;20194;-38
2022/06/24 04:20:17;;;;;;;11.37;10.37;;;21.60;99.90;;;;;;5029445;28;20524;-38
2022/06/24 04:22:43;;;;;;;11.80;10.80;;;21.50;99.90;;;;;;5029621;28;20946;-38
2022/06/24 04:25:10;;;;;;;10.97;9.97;;;21.40;99.90;;;;;;5029653;28;20465;-38
2022/06/24 04:27:36;;;;;;;10.33;9.53;;;21.40;99.90;;;;;;5028865;28;20421;-39
2022/06/24 04:30:05;;;;;;;10.00;9.10;;;21.40;99.90;;;;;;5029631;28;20431;-38
2022/06/24 04:32:31;;;;;;;11.50;10.50;;;21.50;99.90;;;;;;5029259;28;20429;-38
2022/06/24 04:34:57;;;;;;;11.63;10.63;;;21.40;99.90;;;;;;5028598;28;20437;-38
2022/06/24 04:37:22;;;;;;;12.60;11.40;;;21.40;99.90;;;;;;5028811;28;20190;-38
2022/06/24 04:39:48;;;;;;;12.27;11.00;;;21.40;99.90;;;;;;5029552;28;20432;-38
2022/06/24 04:42:14;;;;;;;12.93;11.73;;;21.40;99.90;;;;;;5033119;28;20241;-39
2022/06/24 04:44:40;;;;;;;12.60;11.60;;;21.40;99.90;;;;;;5024741;28;20290;-38
2022/06/24 04:47:06;;;;;;;13.83;12.53;;;21.40;99.90;;;;;;5028298;28;20432;-40
2022/06/24 04:49:32;;;;;;;13.40;12.10;;;21.40;99.90;;;;;;5030354;28;20437;-38
2022/06/24 04:51:59;;;;;;;15.03;13.60;;;21.30;99.90;;;;;;5029271;28;20183;-38
2022/06/24 04:54:24;;;;;;;14.67;13.37;;;21.30;99.90;;;;;;5029205;28;20429;-37
2022/06/24 04:56:50;;;;;;;14.90;13.60;;;21.20;99.90;;;;;;5028766;28;20437;-39
2022/06/24 04:59:16;;;;;;;16.03;14.53;;;21.10;99.90;;;;;;5031523;28;20293;-37
2022/06/24 05:01:42;;;;;;;15.40;13.90;;;21.00;99.90;;;;;;5033054;28;20448;-38
2022/06/24 05:04:07;;;;;;;16.03;14.40;;;21.00;99.90;;;;;;5033227;28;20198;-39
2022/06/24 05:06:33;;;;;;;15.67;14.33;;;21.00;99.90;;;;;;5032181;28;20226;-39
2022/06/24 05:08:59;;;;;;;14.93;13.53;;;21.00;99.90;;;;;;5032960;28;20198;-41
2022/06/24 05:11:25;;;;;;;14.33;13.23;;;21.00;99.90;;;;;;5031547;28;20225;-38
2022/06/24 05:13:51;;;;;;;15.90;14.40;;;21.00;99.90;;;;;;5032883;28;20203;-38
2022/06/24 05:16:17;;;;;;;15.50;14.30;;;20.90;99.90;;;;;;5032225;28;20932;-40
2022/06/24 05:18:42;;;;;;;15.87;14.47;;;20.80;99.90;;;;;;5032120;28;20542;-38
2022/06/24 05:21:08;;;;;;;16.33;14.83;;;20.90;99.90;;;;;;5032443;28;20435;-38
2022/06/24 05:23:34;;;;;;;15.13;13.80;;;20.80;99.90;;;;;;5032719;28;20260;-38
2022/06/24 05:26:00;;;;;;;14.60;13.40;;;20.80;99.90;;;;;;5031100;28;20504;-37
2022/06/24 05:28:26;;;;;;;16.50;14.97;;;20.80;99.90;;;;;;5031942;28;20182;-38
2022/06/24 05:30:58;;;;;;;14.53;13.10;;;20.80;99.90;;;;;;5031078;28;20260;-38
2022/06/24 05:33:24;;;;;;;15.63;14.23;;;20.80;99.90;;;;;;5028746;28;20225;-39
2022/06/24 05:35:54;;;;;;;14.23;12.93;;;20.80;99.90;;;;;;5021446;28;20440;-38
2022/06/24 05:38:21;;;;;;;15.87;14.43;;;20.90;99.90;;;;;;5031661;28;21072;-38
2022/06/24 05:40:51;;;;;;;15.80;14.40;;;20.90;99.90;;;;;;5032243;28;20961;-40
2022/06/24 05:43:18;;;;;;;15.97;14.57;;;20.90;99.90;;;;;;5028205;28;20860;-40
2022/06/24 05:45:45;;;;;;;17.10;15.70;;;20.90;99.90;;;;;;5024361;28;20884;-38
2022/06/24 05:48:11;;;;;;;15.47;14.07;;;20.90;99.90;;;;;;5013362;28;20422;-38
2022/06/24 05:50:40;;;;;;;16.23;14.77;;;20.90;99.90;;;;;;5032014;28;20440;-40
2022/06/24 05:55:55;;;;;;;16.47;14.70;;;20.80;99.90;;;;;;5031818;28;20499;-37
2022/06/24 05:58:21;;;;;;;15.47;14.03;;;20.70;99.90;;;;;;5031209;28;20899;-37
2022/06/24 06:00:46;;;;;;;17.77;16.07;;;20.70;99.90;;;;;;5030630;28;20467;-39
2022/06/24 06:03:12;;;;;;;15.97;14.47;;;20.70;99.90;;;;;;5030790;28;20197;-38
2022/06/24 06:05:38;;;;;;;17.53;15.83;;;20.60;99.90;;;;;;5026561;28;20624;-38
2022/06/24 06:08:04;;;;;;;15.90;14.50;;;20.60;99.90;;;;;;5026732;28;20190;-41
2022/06/24 06:10:30;;;;;;;16.80;15.20;;;20.60;99.90;;;;;;5031393;28;20526;-40
2022/06/24 06:12:55;;;;;;;16.93;15.43;;;20.60;99.90;;;;;;5031801;28;20282;-39
2022/06/24 06:15:21;;;;;;;16.03;14.53;;;20.60;99.90;;;;;;5031546;28;20285;-38
2022/06/24 06:17:47;;;;;;;17.70;15.90;;;20.70;99.90;;;;;;5030905;28;20198;-39
2022/06/24 06:20:12;;;;;;;16.43;14.77;;;20.70;99.90;;;;;;5027020;28;20248;-38
2022/06/24 06:22:38;;;;;;;14.50;13.07;;;20.70;99.90;;;;;;5023809;28;20253;-38
2022/06/24 06:25:04;;;;;;;12.93;11.83;;;20.70;99.90;;;;;;5024089;28;20218;-38
2022/06/24 06:27:30;;;;;;;9.70;8.80;;;20.60;99.90;;;;;;5021813;28;20182;-38
2022/06/24 06:29:55;;;;;;;7.83;6.80;;;20.60;99.90;;;;;;5019835;28;20791;-40
2022/06/24 06:32:21;;;;;;;8.80;5.90;;;20.60;99.90;;;;;;5028365;28;20198;-37
2022/06/24 06:34:47;;;;;;;6.17;5.50;;;20.50;99.90;;;;;;5031281;28;20791;-37
2022/06/24 06:37:13;;;;;;;8.00;5.07;;;20.50;99.90;;;;;;5037525;28;20198;-38
2022/06/24 06:39:38;;;;;;;8.80;5.07;;;20.40;99.90;;;;;;5030690;28;20633;-39
2022/06/24 06:42:04;;;;;;;5.40;4.17;;;20.40;99.90;;;;;;5031010;28;20190;-39
2022/06/24 06:44:30;;;;;;;4.63;3.80;;;20.50;99.90;;;;;;5029550;28;20405;-38
2022/06/24 06:46:56;;;;;;;4.30;3.50;;;20.50;99.90;;;;;;5029042;28;20548;-38
2022/06/24 06:49:21;;;;;;;4.33;3.93;;;20.50;99.90;;;;;;5028171;28;20183;-38
2022/06/24 06:51:47;;;;;;;7.30;3.43;;;20.50;99.90;;;;;;5022344;28;20672;-37
2022/06/24 06:54:13;;;;;;;5.60;3.20;;;20.50;99.90;;;;;;5021781;28;20186;-38
2022/06/24 06:56:39;;;;;;;4.33;2.97;;;20.50;99.90;;;;;;5024180;28;20189;-40
2022/06/24 06:59:05;;;;;;;3.87;3.47;;;20.50;99.90;;;;;;5027397;28;20191;-38
2022/06/24 07:01:30;;;;;;;4.27;3.00;;;20.50;99.90;;;;;;5030645;28;20475;-39
2022/06/24 07:03:57;;;;;;;7.70;3.03;;;20.60;99.90;;;;;;5030777;28;20190;-38
2022/06/24 07:06:24;;;;;;;7.30;3.00;;;20.60;99.90;;;;;;5030439;28;20244;-38
2022/06/24 07:08:51;;;;;;;6.43;3.20;;;20.70;99.90;;;;;;5029837;28;20452;-39
2022/06/24 07:11:17;;;;;;;3.90;2.77;;;20.70;99.90;;;;;;5030751;28;20428;-38
2022/06/24 07:13:43;;;;;;;6.67;3.20;;;20.70;99.90;;;;;;5030721;28;20421;-38
2022/06/24 07:16:12;;;;;;;4.50;2.80;;;20.80;99.90;;;;;;5030213;28;20889;-37
2022/06/24 07:18:37;;;;;;;4.83;2.90;;;20.80;99.90;;;;;;5029919;28;20198;-38
2022/06/24 07:21:03;;;;;;;3.63;2.20;;;20.80;99.90;;;;;;5028385;28;20447;-38
2022/06/24 07:23:29;;;;;;;4.80;3.00;;;20.90;99.90;;;;;;5029014;28;20293;-38
2022/06/24 07:25:56;;;;;;;4.03;2.80;;;20.90;99.90;;;;;;5030132;28;20484;-40
2022/06/24 07:28:22;;;;;;;5.30;3.10;;;20.90;99.90;;;;;;5029698;28;20186;-38
2022/06/24 07:30:47;;;;;;;5.87;2.70;;;20.90;99.90;;;;;;5030148;28;20435;-39
2022/06/24 07:33:13;;;;;;;2.83;2.50;;;21.00;99.90;;;;;;5030316;28;20198;-38
2022/06/24 07:35:39;;;;;;;3.83;2.53;;;21.00;99.90;;;;;;5030211;28;20221;-37
2022/06/24 07:38:05;;;;;;;3.27;2.43;;;21.00;99.90;;;;;;5029377;28;20205;-38
2022/06/24 07:40:30;;;;;;;4.13;2.23;;;21.00;99.90;;;;;;5030340;28;20779;-38
2022/06/24 07:42:56;;;;;;;3.33;2.30;;;21.00;99.90;;;;;;5030047;28;20182;-39
2022/06/24 07:45:22;;;;;;;7.07;2.83;;;21.00;99.90;;;;;;5028558;28;20225;-40
2022/06/24 07:47:48;;;;;;;5.53;2.60;;;21.00;99.90;;;;;;5029311;28;20198;-39
2022/06/24 07:50:13;;;;;;;2.20;2.00;;;21.00;99.90;;;;;;5042898;28;20269;-40
2022/06/24 07:52:39;;;;;;;4.43;2.73;;;21.00;99.90;;;;;;5029702;28;20545;-38
2022/06/24 07:57:49;;;;;;;8.30;3.00;;;21.10;99.90;;;;;;5029268;28;20217;-40
2022/06/24 08:00:16;;;;;;;4.17;2.63;;;21.20;99.90;;;;;;5029623;28;20874;-38
2022/06/24 08:02:41;;;;;;;5.07;2.47;;;21.20;99.90;;;;;;5029877;28;20186;-38
2022/06/24 08:05:08;;;;;;;5.07;2.50;;;21.20;99.90;;;;;;5028342;28;20503;-38
2022/06/24 08:07:33;;;;;;;3.70;3.07;;;21.30;99.90;;;;;;5029214;28;20530;-39
2022/06/24 08:09:59;;;;;;;3.93;2.80;;;21.50;99.90;;;;;;5029711;28;20421;-37
2022/06/24 08:12:25;;;;;;;3.70;2.50;;;21.70;99.90;;;;;;5029869;28;20197;-38
2022/06/24 08:14:50;;;;;;;4.97;2.40;;;21.80;99.90;;;;;;5029556;28;20261;-38
2022/06/24 08:17:16;;;;;;;3.43;2.60;;;21.90;99.90;;;;;;5029167;28;20213;-38
2022/06/24 08:19:42;;;;;;;4.97;2.57;;;21.90;99.90;;;;;;5027924;28;20187;-39
2022/06/24 08:22:08;;;;;;;3.63;2.57;;;21.90;99.90;;;;;;5029898;28;20216;-40
2022/06/24 08:24:33;;;;;;;3.50;3.10;;;21.80;99.90;;;;;;5029497;28;20229;-40
2022/06/24 08:26:59;;;;;;;4.40;3.63;;;21.80;99.90;;;;;;5028922;28;20566;-38
2022/06/24 08:29:25;;;;;;;7.83;4.63;;;21.80;99.90;;;;;;5029393;28;20214;-38
2022/06/24 08:31:51;;;;;;;4.90;4.13;;;21.80;99.90;;;;;;5029592;28;20186;-39
2022/06/24 08:34:17;;;;;;;6.10;4.53;;;21.80;99.90;;;;;;5031835;28;20183;-38
2022/06/24 08:36:43;;;;;;;5.27;3.00;;;21.70;99.90;;;;;;5032775;28;20190;-40
2022/06/24 08:39:09;;;;;;;2.97;2.67;;;21.60;99.90;;;;;;5033529;28;21072;-38
2022/06/24 08:41:37;;;;;;;2.37;2.00;;;21.40;99.90;;;;;;5033279;28;20197;-38
2022/06/24 08:44:03;;;;;;;2.60;1.80;;;21.30;99.90;;;;;;5031961;28;20209;-39
2022/06/24 08:46:29;;;;;;;2.90;1.97;;;21.20;99.90;;;;;;5033069;28;20465;-38
2022/06/24 08:48:58;;;;;;;3.20;2.00;;;21.10;99.90;;;;;;5032418;28;20437;-38
2022/06/24 08:51:26;;;;;;;3.30;2.10;;;21.00;99.90;;;;;;5032990;28;20641;-39
2022/06/24 08:53:56;;;;;;;3.53;2.40;;;20.90;99.90;;;;;;5033254;28;20563;-38
2022/06/24 08:56:22;;;;;;;2.30;2.10;;;20.90;99.90;;;;;;5031678;28;20950;-39
2022/06/24 08:58:49;;;;;;;2.40;2.00;;;20.90;99.90;;;;;;5032368;28;20432;-39
2022/06/24 09:01:15;;;;;;;3.00;1.73;;;20.80;99.90;;;;;;5032743;28;20472;-39
2022/06/24 09:03:43;;;;;;;2.20;1.63;;;20.80;99.90;;;;;;5032891;28;20444;-39
2022/06/24 09:06:14;;;;;;;2.20;2.00;;;20.70;99.90;;;;;;5032950;28;20460;-38
2022/06/24 09:08:44;;;;;;;4.00;2.13;;;20.70;99.90;;;;;;5032345;28;20888;-38
2022/06/24 09:11:10;;;;;;;2.50;2.30;;;20.50;99.90;;;;;;5032890;28;20431;-37
2022/06/24 09:13:47;;;;;;;2.50;2.30;;;20.50;99.90;;;;;;5032564;28;20433;-38
2022/06/24 09:16:17;;;;;;;3.73;3.43;;;20.50;99.90;;;;;;5032832;28;20802;-38
2022/06/24 09:18:50;;;;;;;4.40;4.00;;;20.50;99.90;;;;;;5031087;28;20459;-39
2022/06/24 09:21:28;;;;;;;5.23;4.63;;;20.50;99.90;;;;;;5032417;28;20525;-38
2022/06/24 09:24:05;;;;;;;5.90;5.30;;;20.50;99.90;;;;;;5032637;28;20454;-39
2022/06/24 09:26:37;;;;;;;5.90;5.30;;;20.40;99.90;;;;;;5032315;28;20467;-38
2022/06/24 09:29:11;;;;;;;6.17;5.57;;;20.40;99.90;;;;;;5032193;28;20436;-38
2022/06/24 09:31:38;;;;;;;9.37;6.60;;;20.30;99.90;;;;;;5032583;28;20467;-39
2022/06/24 09:34:07;;;;;;;7.13;6.43;;;20.20;99.90;;;;;;5032390;28;20521;-37
2022/06/24 09:36:34;;;;;;;8.40;7.60;;;20.20;99.90;;;;;;5031738;28;20811;-40
2022/06/24 09:39:06;;;;;;;7.67;6.97;;;20.20;99.90;;;;;;5032090;28;20487;-38
2022/06/24 09:41:45;;;;;;;8.30;7.53;;;20.10;99.90;;;;;;5032042;28;20436;-39
2022/06/24 09:44:12;;;;;;;9.27;8.37;;;20.20;99.90;;;;;;5030353;28;20431;-38
2022/06/24 09:46:38;;;;;;;10.10;9.00;;;20.20;99.90;;;;;;5031443;28;20469;-38
2022/06/24 09:49:05;;;;;;;10.63;9.03;;;20.10;99.90;;;;;;5036895;28;20432;-39
2022/06/24 09:51:32;;;;;;;12.80;11.13;;;20.00;99.90;;;;;;5039336;28;20187;-38
2022/06/24 09:53:58;;;;;;;12.33;11.10;;;20.10;99.90;;;;;;5032234;28;20893;-39
2022/06/24 09:56:24;;;;;;;13.03;11.73;;;20.10;99.90;;;;;;5031943;28;20946;-38
2022/06/24 10:01:37;;;;;;;12.33;11.00;;;20.00;99.90;;;;;;5031616;28;20432;-42
2022/06/24 10:04:05;;;;;;;12.00;10.70;;;19.90;99.90;;;;;;5031978;28;20437;-39
2022/06/24 10:06:34;;;;;;;9.63;8.63;;;19.90;99.90;;;;;;5031438;28;20956;-38
2022/06/24 10:09:04;;;;;;;8.90;7.97;;;19.90;99.90;;;;;;5031787;28;20540;-39
2022/06/24 10:11:33;;;;;;;7.70;7.00;;;19.80;99.90;;;;;;5031477;28;20987;-39
2022/06/24 10:14:00;;;;;;;7.87;7.07;;;19.80;99.90;;;;;;5031671;28;20429;-38
2022/06/24 10:16:26;;;;;;;7.13;6.47;;;19.80;99.90;;;;;;5031561;28;20522;-38
2022/06/24 10:18:53;;;;;;;10.30;8.70;;;19.90;99.90;;;;;;5031071;28;20947;-39
2022/06/24 10:21:19;;;;;;;14.67;9.90;;;20.00;99.90;;;;;;5031392;28;20582;-38
2022/06/24 10:23:52;;;;;;;11.27;9.57;;;20.10;99.90;;;;;;5031371;28;20429;-39
2022/06/24 10:26:38;;;;;;;10.97;9.80;;;20.20;99.90;;;;;;5031366;28;20489;-38
2022/06/24 10:29:04;;;;;;;8.47;7.77;;;20.30;99.90;;;;;;5031271;28;20970;-38
2022/06/24 10:31:48;;;;;;;7.93;7.23;;;20.50;99.90;;;;;;5031359;28;20444;-38
2022/06/24 10:34:22;;;;;;;7.80;7.20;;;20.60;99.90;;;;;;5031138;28;20683;-38
2022/06/24 10:36:55;;;;;;;7.10;6.50;;;20.60;99.90;;;;;;5030645;28;20930;-38
2022/06/24 10:39:23;;;;;;;7.20;6.50;;;20.60;99.90;;;;;;5030985;28;20869;-38
2022/06/24 10:42:10;;;;;;;7.40;6.30;;;20.80;99.90;;;;;;5031367;28;20768;-39
2022/06/24 10:44:38;;;;;;;7.13;5.50;;;20.90;99.90;;;;;;5029684;28;21363;-39
2022/06/24 10:47:12;;;;;;;6.10;5.60;;;21.00;99.90;;;;;;5030386;28;20510;-39
2022/06/24 10:49:56;;;;;;;5.73;5.23;;;21.10;99.90;;;;;;5040762;28;20424;-40
2022/06/24 10:52:38;;;;;;;6.33;5.20;;;21.30;99.90;;;;;;5031345;28;21155;-39
2022/06/24 10:57:45;;;;;;;5.20;4.70;;;21.60;99.90;;;;;;5029929;28;20746;-38
2022/06/24 11:00:17;;;;;;;5.50;4.97;;;21.70;99.90;;;;;;5030288;28;20471;-38
2022/06/24 11:02:45;;;;;;;5.30;4.77;;;21.80;99.90;;;;;;5029555;28;20513;-40
2022/06/24 11:05:34;;;;;;;5.00;3.63;;;22.00;99.90;;;;;;5030742;28;20460;-38
2022/06/24 11:08:01;;;;;;;4.23;3.60;;;22.20;99.90;;;;;;5024462;28;20429;-39
2022/06/24 11:10:32;;;;;;;3.80;3.47;;;22.40;99.90;;;;;;5030399;28;20963;-38
2022/06/24 11:13:03;;;;;;;3.50;3.20;;;22.60;99.90;;;;;;5030664;28;20413;-38
2022/06/24 11:15:35;;;;;;;6.07;5.30;;;22.60;99.90;;;;;;5030586;28;20459;-39
2022/06/24 11:18:08;;;;;;;5.50;5.00;;;22.50;99.90;;;;;;5029864;28;20448;-38
2022/06/24 11:20:47;;;;;;;6.17;5.57;;;22.40;99.90;;;;;;5012717;28;20916;-38
2022/06/24 11:23:15;;;;;;;7.10;6.53;;;22.40;99.90;;;;;;5017875;28;20427;-38
2022/06/24 11:25:47;;;;;;;7.80;7.17;;;22.40;99.90;;;;;;5030431;28;20535;-39
2022/06/24 11:28:21;;;;;;;8.50;7.90;;;22.60;99.90;;;;;;5029741;28;20421;-38
2022/06/24 11:30:48;;;;;;;8.67;8.00;;;22.60;99.90;;;;;;5030258;28;20452;-39
2022/06/24 11:33:14;;;;;;;9.10;8.40;;;22.60;99.90;;;;;;5030071;28;20422;-39
2022/06/24 11:35:40;;;;;;;10.00;9.10;;;22.50;99.90;;;;;;5029992;28;20425;-38
2022/06/24 11:38:08;;;;;;;12.53;11.40;;;22.60;99.90;;;;;;5029692;28;20555;-38
2022/06/24 11:40:35;;;;;;;10.93;10.03;;;22.70;99.90;;;;;;5030068;28;20437;-40
2022/06/24 11:43:11;;;;;;;11.77;10.77;;;22.70;99.90;;;;;;5030226;28;20436;-38
2022/06/24 11:45:40;;;;;;;11.80;10.80;;;22.80;99.90;;;;;;5028388;28;20457;-39
2022/06/24 11:48:11;;;;;;;11.30;10.40;;;23.00;99.90;;;;;;5029503;28;21092;-39
2022/06/24 11:50:38;;;;;;;11.67;10.47;;;23.00;99.90;;;;;;5042765;28;20421;-41
2022/06/24 11:53:06;;;;;;;10.87;9.87;;;23.10;99.90;;;;;;5030086;28;20425;-38
2022/06/24 11:55:40;;;;;;;11.37;10.37;;;23.30;99.90;;;;;;5029856;28;20429;-38
2022/06/24 11:58:11;;;;;;;10.67;9.53;;;23.40;99.90;;;;;;5029361;28;20421;-38
2022/06/24 12:00:41;;;;;;;11.60;10.70;;;23.50;99.90;;;;;;5029631;28;20441;-38
2022/06/24 12:03:09;;;;;;;9.83;9.03;;;23.60;99.90;;;;;;5029999;28;20865;-42
2022/06/24 12:05:39;;;;;;;9.90;9.10;;;23.40;99.90;;;;;;5029702;28;20477;-39
2022/06/24 12:08:05;;;;;;;9.33;8.47;;;23.40;99.90;;;;;;5033200;28;20485;-38
2022/06/24 12:10:31;;;;;;;9.23;7.60;;;23.40;99.90;;;;;;5036312;28;20424;-39
2022/06/24 12:13:05;;;;;;;7.30;6.60;;;23.60;99.90;;;;;;5036217;28;20424;-39
2022/06/24 12:15:37;;;;;;;10.03;6.97;;;23.60;99.90;;;;;;5036301;28;20425;-39
2022/06/24 12:18:12;;;;;;;7.17;6.47;;;23.60;99.90;;;;;;5034370;28;20482;-39
2022/06/24 12:20:38;;;;;;;6.97;6.30;;;23.70;99.90;;;;;;5036276;28;20424;-39
2022/06/24 12:23:20;;;;;;;7.00;6.40;;;23.60;99.90;;;;;;5036301;28;20466;-38
2022/06/24 12:25:48;;;;;;;6.10;5.60;;;23.60;99.90;;;;;;5036432;28;20216;-38
2022/06/24 12:28:18;;;;;;;5.73;5.33;;;23.60;99.90;;;;;;5035607;28;20531;-38
2022/06/24 12:31:03;;;;;;;5.50;5.10;;;23.60;99.90;;;;;;5036150;28;21093;-38
2022/06/24 12:33:34;;;;;;;6.13;5.63;;;23.70;99.90;;;;;;5034903;28;21212;-39
2022/06/24 12:36:11;;;;;;;5.90;5.37;;;23.70;99.90;;;;;;5036045;28;20596;-39
2022/06/24 12:38:42;;;;;;;5.73;5.23;;;23.60;99.90;;;;;;5035376;28;20424;-39
2022/06/24 12:41:19;;;;;;;5.50;4.97;;;23.70;99.90;;;;;;5036252;28;20422;-40
2022/06/24 12:44:05;;;;;;;5.50;5.00;;;23.60;99.90;;;;;;5036021;28;20459;-38
2022/06/24 12:46:34;;;;;;;5.77;5.17;;;23.50;99.90;;;;;;5035730;28;20456;-38
2022/06/24 12:51:55;;;;;;;4.00;3.70;;;23.70;99.90;;;;;;5038633;28;20765;-39
2022/06/24 12:54:21;;;;;;;5.30;4.70;;;23.80;99.90;;;;;;5035912;28;20910;-38
2022/06/24 12:56:47;;;;;;;4.80;4.47;;;23.80;99.90;;;;;;5034996;28;20273;-38
2022/06/24 12:59:12;;;;;;;4.90;4.40;;;23.70;99.90;;;;;;5035877;28;20884;-38
2022/06/24 13:01:44;;;;;;;5.23;4.40;;;23.60;99.90;;;;;;5035831;28;20269;-38
2022/06/24 13:04:11;;;;;;;4.27;3.87;;;23.50;99.90;;;;;;5035922;28;20186;-39